Yoann-jordan — FGE5099 — position and weather

sailwx.info

Track history (hours):
 
Tides and Currents Weather Stations Pressure Air Temp Water Temp Dewpoint Dewpoint Depression Visibility Wind Speed Wind Dir Waves Ship Positions

Yoann-jordan

Last reported at 2017-Sep-21 02:50 UTC. Time now 2017-Sep-22 11:46 UTC.
Position N 46°29' W 001°48'.

Length 11 m.

Type: Fishing. MMSI: 227648190.

Date/timePositionNaut miles runAvg speedWind from/ knotsBaromVisibWave heightAir tempDewpointWater temp
2017-Sep-21 02:50N 46°29' W 001°48'0 1.4
2017-Sep-21 02:30N 46°30' W 001°47'0 0.2
2017-Sep-21 01:59N 46°30' W 001°47'1 2.4
2017-Sep-21 01:30N 46°29' W 001°48'4 7.7
2017-Sep-21 01:00N 46°31' W 001°53'4 8.4
2017-Sep-21 00:30N 46°34' W 001°57'2 4.2
2017-Sep-21 00:00N 46°35' W 001°60'1 2.0
2017-Sep-20 23:24N 46°36' W 002°01'1 2.3
2017-Sep-20 22:52N 46°37' W 002°02'1 1.9
2017-Sep-20 22:24N 46°38' W 002°02'1 3.1
2017-Sep-20 21:59N 46°37' W 002°01'0 0.9
2017-Sep-20 21:28N 46°37' W 002°00'1 2.7
2017-Sep-20 21:00N 46°37' W 002°02'1 2.7
2017-Sep-20 20:30N 46°36' W 002°01'1 2.7
2017-Sep-20 20:00N 46°35' W 001°60'2 2.8
2017-Sep-20 19:22N 46°34' W 002°01'1 2.9
2017-Sep-20 18:59N 46°34' W 002°03'1 1.3
2017-Sep-20 18:30N 46°33' W 002°04'7 0.4
2017-Sep-20 03:20N 46°31' W 001°54'3 8.3
2017-Sep-20 02:59N 46°29' W 001°51'3 5.6
2017-Sep-20 02:30N 46°30' W 001°47'0 0.4
2017-Sep-20 01:59N 46°30' W 001°47'3 5.5
2017-Sep-20 01:30N 46°29' W 001°51'9 2.7
2017-Sep-19 22:14N 46°36' W 001°58'  
Track history (hours):
 
Tides and Currents Weather Stations Pressure Air Temp Water Temp Dewpoint Dewpoint Depression Visibility Wind Speed Wind Dir Waves Ship Positions

Yoann-jordan

Last reported at 2017-Sep-21 02:50 UTC. Time now 2017-Sep-22 11:46 UTC.
Position N 46°29' W 001°48'.

Length 11 m.

Type: Fishing. MMSI: 227648190.

Date/timePositionNaut miles runAvg speedWind from/ knotsBaromVisibWave heightAir tempDewpointWater temp
2017-Sep-21 02:50N 46°29' W 001°48'0 1.4
2017-Sep-21 02:30N 46°30' W 001°47'0 0.2
2017-Sep-21 01:59N 46°30' W 001°47'1 2.4
2017-Sep-21 01:30N 46°29' W 001°48'4 7.7
2017-Sep-21 01:00N 46°31' W 001°53'4 8.4
2017-Sep-21 00:30N 46°34' W 001°57'2 4.2
2017-Sep-21 00:00N 46°35' W 001°60'1 2.0
2017-Sep-20 23:24N 46°36' W 002°01'1 2.3
2017-Sep-20 22:52N 46°37' W 002°02'1 1.9
2017-Sep-20 22:24N 46°38' W 002°02'1 3.1
2017-Sep-20 21:59N 46°37' W 002°01'0 0.9
2017-Sep-20 21:28N 46°37' W 002°00'1 2.7
2017-Sep-20 21:00N 46°37' W 002°02'1 2.7
2017-Sep-20 20:30N 46°36' W 002°01'1 2.7
2017-Sep-20 20:00N 46°35' W 001°60'2 2.8
2017-Sep-20 19:22N 46°34' W 002°01'1 2.9
2017-Sep-20 18:59N 46°34' W 002°03'1 1.3
2017-Sep-20 18:30N 46°33' W 002°04'7 0.4
2017-Sep-20 03:20N 46°31' W 001°54'3 8.3
2017-Sep-20 02:59N 46°29' W 001°51'3 5.6
2017-Sep-20 02:30N 46°30' W 001°47'0 0.4
2017-Sep-20 01:59N 46°30' W 001°47'3 5.5
2017-Sep-20 01:30N 46°29' W 001°51'9 2.7
2017-Sep-19 22:14N 46°36' W 001°58'  

Dump ship's entire track history